createdAt,value
2018-03-02T00:00:14.537Z,-0.56
2018-03-02T00:20:48.905Z,-0.75
2018-03-02T00:41:24.466Z,-0.83
2018-03-02T01:02:00.970Z,-1.05
2018-03-02T01:22:36.242Z,-1.25
2018-03-02T01:43:10.834Z,-1.28
2018-03-02T02:03:44.048Z,-1.49
2018-03-02T02:24:18.987Z,-1.58
2018-03-02T02:44:53.332Z,-1.74
2018-03-02T03:05:26.706Z,-1.88
2018-03-02T03:26:02.647Z,-1.89
2018-03-02T03:46:40.994Z,-1.98
2018-03-02T04:07:20.877Z,-2.39
2018-03-02T04:27:56.446Z,-2.71
2018-03-02T04:48:31.961Z,-2.94
2018-03-02T05:09:06.991Z,-3.27
2018-03-02T05:29:42.264Z,-3.31
2018-03-02T05:50:16.637Z,-3.42
2018-03-02T06:10:50.659Z,-3.50
2018-03-02T06:31:28.111Z,-3.51
2018-03-02T06:52:06.121Z,-3.57
2018-03-02T07:12:38.319Z,-3.67
2018-03-02T07:33:13.591Z,-3.70
2018-03-02T07:53:46.710Z,-3.75
2018-03-02T08:14:21.979Z,-3.56
2018-03-02T08:34:57.870Z,-3.16
2018-03-02T08:55:32.807Z,-3.25
2018-03-02T09:16:06.920Z,-3.10
2018-03-02T09:36:40.919Z,-2.96
2018-03-02T09:57:14.963Z,-2.56
2018-03-02T10:17:48.574Z,-2.17
2018-03-02T10:38:24.585Z,-2.01
2018-03-02T10:58:59.859Z,-1.49
2018-03-02T11:19:35.276Z,-1.52
2018-03-02T11:40:10.097Z,-1.08
2018-03-02T12:00:46.741Z,-0.85
2018-03-02T12:21:20.640Z,-0.63
2018-03-02T12:41:58.209Z,-0.24
2018-03-02T13:02:31.184Z,-0.09
2018-03-02T13:23:04.399Z,0.41
2018-03-02T13:43:39.581Z,0.18
2018-03-02T14:04:31.256Z,0.30
2018-03-02T14:25:08.246Z,0.11
2018-03-02T14:45:48.127Z,0.10
2018-03-02T15:06:23.705Z,0.12
2018-03-02T15:26:55.603Z,0.04
2018-03-02T15:47:31.184Z,-0.36
2018-03-02T16:08:03.379Z,-0.66
2018-03-02T16:28:39.892Z,-1.03
2018-03-02T16:49:15.461Z,-1.39
2018-03-02T17:09:51.360Z,-1.60
2018-03-02T17:30:24.471Z,-1.71
2018-03-02T17:50:59.799Z,-1.83
2018-03-02T18:11:30.713Z,-1.91
2018-03-02T18:32:03.840Z,-1.87
2018-03-02T18:52:38.187Z,-1.83
2018-03-02T19:13:14.385Z,-1.88
2018-03-02T19:33:48.878Z,-2.05
2018-03-02T19:54:27.313Z,-1.93
2018-03-02T20:15:01.363Z,-1.81
2018-03-02T20:35:39.164Z,-1.67
2018-03-02T20:56:17.093Z,-1.82
2018-03-02T21:16:53.109Z,-1.80
2018-03-02T21:37:25.896Z,-1.75
2018-03-02T21:58:03.322Z,-1.75
2018-03-02T22:18:36.833Z,-1.73
2018-03-02T22:39:14.784Z,-1.70
2018-03-02T22:59:49.259Z,-1.61
2018-03-02T23:20:25.330Z,-1.69
2018-03-02T23:41:03.059Z,-1.57
